Time;durP1;ratioP1;P1;durP2;ratioP2;P2;SDS_P1;SDS_P2;PMS_P1;PMS_P2;Temp;Humidity;BMP_temperature;BMP_pressure;BME280_temperature;BME280_humidity;BME280_pressure;Samples;Min_cycle;Max_cycle;Signal;HPM_P1;HPM_P2
2022/07/24 00:01:30;;;;;;;10.93;5.70;;;;;;;17.87;78.44;101692.34;5061150;28;20028;-74
2022/07/24 00:03:56;;;;;;;8.18;5.55;;;;;;;17.89;78.64;101689.56;5058981;28;20546;-74
2022/07/24 00:06:22;;;;;;;7.70;5.35;;;;;;;17.89;78.61;101689.56;5059660;28;20036;-73
2022/07/24 00:08:48;;;;;;;7.28;5.75;;;;;;;17.89;78.64;101690.41;5059105;28;20032;-74
2022/07/24 00:11:13;;;;;;;7.47;5.93;;;;;;;17.88;78.65;101686.13;5058752;28;20110;-75
2022/07/24 00:13:39;;;;;;;7.03;5.60;;;;;;;17.87;78.74;101676.63;5059995;28;20025;-74
2022/07/24 00:16:05;;;;;;;8.05;5.45;;;;;;;17.83;78.68;101680.56;5059513;28;20622;-73
2022/07/24 00:18:30;;;;;;;7.78;5.03;;;;;;;17.79;78.97;101676.69;5060099;28;20120;-73
2022/07/24 00:20:56;;;;;;;8.20;5.88;;;;;;;17.73;79.36;101685.31;5052575;28;20036;-74
2022/07/24 00:23:23;;;;;;;8.98;5.40;;;;;;;17.69;79.62;101678.81;5058281;28;20040;-74
2022/07/24 00:25:48;;;;;;;9.27;5.30;;;;;;;17.67;79.41;101678.16;5041734;28;20081;-72
2022/07/24 00:28:14;;;;;;;9.20;6.60;;;;;;;17.58;79.91;101676.63;5059060;28;20032;-73
2022/07/24 00:30:39;;;;;;;7.63;5.20;;;;;;;17.52;80.02;101673.72;5052823;28;20135;-74
2022/07/24 00:33:05;;;;;;;9.90;5.90;;;;;;;17.51;80.09;101672.09;5060798;28;20040;-74
2022/07/24 00:35:31;;;;;;;8.98;6.25;;;;;;;17.52;80.08;101680.78;5037458;28;20024;-73
2022/07/24 00:37:56;;;;;;;8.80;5.22;;;;;;;17.51;80.17;101677.34;5038663;28;20636;-73
2022/07/24 00:40:22;;;;;;;7.60;5.70;;;;;;;17.51;79.97;101671.28;5062812;28;20028;-73
2022/07/24 00:42:47;;;;;;;7.93;5.72;;;;;;;17.51;79.75;101668.66;5039255;28;20024;-74
2022/07/24 00:45:13;;;;;;;10.13;6.13;;;;;;;17.50;79.83;101670.47;5023932;28;20028;-73
2022/07/24 00:47:38;;;;;;;8.82;5.85;;;;;;;17.53;79.82;101674.53;5040892;28;20405;-73
2022/07/24 00:50:05;;;;;;;7.45;5.03;;;;;;;17.58;79.38;101676.63;5037594;28;20041;-74
2022/07/24 00:52:31;;;;;;;6.78;5.55;;;;;;;17.60;79.03;101678.06;5062122;28;20037;-74
2022/07/24 00:54:57;;;;;;;8.70;6.05;;;;;;;17.59;79.25;101686.91;5040830;28;20552;-74
2022/07/24 00:57:22;;;;;;;8.52;5.68;;;;;;;17.59;79.42;101684.28;5061133;28;20038;-76
2022/07/24 00:59:47;;;;;;;7.78;5.30;;;;;;;17.59;79.16;101683.50;5044154;28;20047;-74
2022/07/24 01:02:13;;;;;;;8.30;4.93;;;;;;;17.60;78.91;101683.31;5059209;28;20032;-74
2022/07/24 01:04:39;;;;;;;9.43;5.70;;;;;;;17.57;78.96;101685.47;5045163;28;20465;-74
2022/07/24 01:07:06;;;;;;;8.60;5.10;;;;;;;17.52;79.67;101683.41;5035301;28;20058;-74
2022/07/24 01:09:31;;;;;;;6.05;4.70;;;;;;;17.47;79.83;101683.94;5036936;28;20032;-74
2022/07/24 01:11:58;;;;;;;10.80;5.18;;;;;;;17.44;79.81;101679.06;5041578;28;20033;-73
2022/07/24 01:14:23;;;;;;;7.55;5.20;;;;;;;17.41;79.95;101668.94;5042067;28;20028;-74
2022/07/24 01:16:49;;;;;;;8.05;5.13;;;;;;;17.41;80.06;101671.56;5043789;28;20032;-74
2022/07/24 01:19:15;;;;;;;9.35;6.30;;;;;;;17.42;79.66;101669.75;5043286;28;20547;-74
2022/07/24 01:21:48;;;;;;;7.40;4.70;;;;;;;17.38;79.88;101677.16;5042435;28;20064;-74
2022/07/24 01:24:14;;;;;;;8.55;5.30;;;;;;;17.33;80.26;101676.91;5058066;28;20120;-74
2022/07/24 01:26:39;;;;;;;8.77;6.38;;;;;;;17.26;80.48;101668.91;5041682;28;20481;-74
2022/07/24 01:29:05;;;;;;;8.57;5.32;;;;;;;17.21;80.95;101670.44;5043016;28;20032;-74
2022/07/24 01:31:30;;;;;;;9.60;5.45;;;;;;;17.19;81.08;101673.25;5042263;28;20094;-74
2022/07/24 01:33:56;;;;;;;8.25;5.45;;;;;;;17.21;80.33;101663.38;5039886;28;20108;-73
2022/07/24 01:36:21;;;;;;;7.85;5.85;;;;;;;17.22;79.87;101665.03;5027204;28;20961;-74
2022/07/24 01:38:47;;;;;;;10.25;6.85;;;;;;;17.23;79.78;101668.47;5043648;28;20428;-74
2022/07/24 01:41:12;;;;;;;8.32;6.13;;;;;;;17.24;79.65;101668.28;5042347;28;20047;-73
2022/07/24 01:43:38;;;;;;;8.23;5.72;;;;;;;17.19;79.87;101662.75;5045442;28;20458;-73
2022/07/24 01:46:04;;;;;;;8.68;5.00;;;;;;;17.15;80.47;101665.94;5037166;28;20032;-74
2022/07/24 01:48:29;;;;;;;9.20;6.30;;;;;;;17.13;80.57;101671.34;5054019;28;20060;-74
2022/07/24 01:50:55;;;;;;;8.10;5.88;;;;;;;17.14;80.20;101662.50;5043415;28;20032;-73
2022/07/24 01:53:20;;;;;;;9.10;5.85;;;;;;;17.12;80.26;101654.81;5025587;28;20025;-73
2022/07/24 01:55:48;;;;;;;7.72;5.43;;;;;;;17.10;80.83;101656.81;5059857;28;20544;-74
2022/07/24 01:58:14;;;;;;;10.40;5.40;;;;;;;17.05;81.21;101653.09;5041548;28;20037;-74
2022/07/24 02:00:39;;;;;;;10.15;6.13;;;;;;;17.02;81.28;101653.44;5060775;28;20090;-74
2022/07/24 02:03:05;;;;;;;8.60;5.68;;;;;;;16.96;81.67;101652.34;5058378;28;20036;-74
2022/07/24 02:05:31;;;;;;;9.05;6.32;;;;;;;16.93;81.58;101652.69;5056916;28;20036;-74
2022/07/24 02:07:58;;;;;;;8.38;6.13;;;;;;;16.89;81.64;101651.41;5058515;28;20132;-74
2022/07/24 02:10:25;;;;;;;8.30;5.75;;;;;;;16.84;81.76;101651.94;5041705;28;20087;-74
2022/07/24 02:12:51;;;;;;;9.65;6.50;;;;;;;16.86;81.49;101649.97;5027217;28;20028;-74
2022/07/24 02:15:16;;;;;;;9.00;6.70;;;;;;;16.86;81.27;101649.16;5057683;28;20035;-74
2022/07/24 02:17:49;;;;;;;9.45;6.20;;;;;;;16.85;80.94;101643.09;5042769;28;20030;-74
2022/07/24 02:20:14;;;;;;;12.05;7.32;;;;;;;16.81;81.27;101644.41;5057894;28;21575;-73
2022/07/24 02:22:40;;;;;;;8.48;6.18;;;;;;;16.74;81.60;101641.69;5042693;28;20036;-74
2022/07/24 02:25:07;;;;;;;8.68;6.45;;;;;;;16.70;81.93;101639.59;5039515;28;20033;-73
2022/07/24 02:27:32;;;;;;;12.57;6.50;;;;;;;16.69;82.03;101641.41;5033405;28;20025;-74
2022/07/24 02:29:58;;;;;;;13.63;6.32;;;;;;;16.66;82.04;101643.56;5052735;28;20102;-72
2022/07/24 02:32:24;;;;;;;15.27;7.10;;;;;;;16.64;82.27;101643.72;5061817;28;20040;-74
2022/07/24 02:34:50;;;;;;;11.05;6.68;;;;;;;16.64;82.10;101642.91;5042445;28;20038;-73
2022/07/24 02:37:16;;;;;;;11.38;6.50;;;;;;;16.61;82.19;101636.22;5024189;28;20037;-73
2022/07/24 02:39:41;;;;;;;9.18;5.70;;;;;;;16.61;82.29;101643.25;5057921;28;20063;-74
2022/07/24 02:42:07;;;;;;;9.32;6.57;;;;;;;16.62;82.11;101634.44;5056853;28;20028;-74
2022/07/24 02:44:32;;;;;;;8.15;6.30;;;;;;;16.61;82.14;101638.03;5041114;28;20045;-74
2022/07/24 02:46:58;;;;;;;9.35;6.80;;;;;;;16.61;82.00;101630.97;5041756;28;20043;-73
2022/07/24 02:49:23;;;;;;;9.90;6.97;;;;;;;16.60;82.11;101624.13;5058776;28;20040;-73
2022/07/24 02:51:49;;;;;;;9.65;7.20;;;;;;;16.57;82.31;101628.91;5044806;28;20036;-73
2022/07/24 02:54:14;;;;;;;10.45;6.25;;;;;;;16.55;82.38;101627.25;5044838;28;20037;-73
2022/07/24 02:56:40;;;;;;;12.38;6.47;;;;;;;16.53;82.32;101631.84;5064534;28;20043;-74
2022/07/24 02:59:06;;;;;;;11.57;6.97;;;;;;;16.50;82.68;101624.38;5021016;28;20021;-74
2022/07/24 03:01:31;;;;;;;10.02;6.72;;;;;;;16.44;83.08;101624.25;5045818;28;20036;-74
2022/07/24 03:03:56;;;;;;;11.27;6.53;;;;;;;16.41;83.17;101622.78;5046058;28;20033;-74
2022/07/24 03:06:22;;;;;;;14.18;7.78;;;;;;;16.41;82.87;101617.56;5041849;28;21041;-74
2022/07/24 03:08:48;;;;;;;9.43;6.68;;;;;;;16.40;82.87;101620.34;5041591;28;20086;-74
2022/07/24 03:11:13;;;;;;;10.23;7.93;;;;;;;16.37;83.24;101634.59;5044192;28;20062;-73
2022/07/24 03:13:39;;;;;;;11.00;7.07;;;;;;;16.34;83.54;101627.09;5064002;28;20489;-73
2022/07/24 03:16:05;;;;;;;11.50;7.65;;;;;;;16.30;83.85;101638.91;5045330;28;20035;-74
2022/07/24 03:18:30;;;;;;;9.50;6.22;;;;;;;16.29;83.90;101622.38;5062857;28;20036;-73
2022/07/24 03:20:56;;;;;;;13.57;7.05;;;;;;;16.29;83.78;101632.03;5041883;28;20036;-74
2022/07/24 03:23:22;;;;;;;11.65;7.53;;;;;;;16.29;83.59;101627.63;5063352;28;20044;-72
2022/07/24 03:25:47;;;;;;;9.30;6.40;;;;;;;16.31;83.32;101624.81;5059408;28;20413;-74
2022/07/24 03:28:13;;;;;;;17.30;9.50;;;;;;;16.35;83.51;101633.97;5042137;28;20049;-74
2022/07/24 03:30:38;;;;;;;14.68;7.63;;;;;;;16.30;83.84;101625.81;5066863;28;20039;-74
2022/07/24 03:33:04;;;;;;;10.75;7.68;;;;;;;16.30;83.71;101626.63;5042402;28;20032;-72
2022/07/24 03:35:29;;;;;;;16.02;8.75;;;;;;;16.28;83.73;101633.84;5064758;28;20466;-74
2022/07/24 03:37:55;;;;;;;12.05;8.95;;;;;;;16.29;83.90;101629.41;5060424;28;20036;-73
2022/07/24 03:40:20;;;;;;;16.38;8.82;;;;;;;16.28;83.82;101625.19;5041364;28;20041;-73
2022/07/24 03:42:46;;;;;;;14.82;8.63;;;;;;;16.25;84.18;101625.50;5042421;28;20413;-74
2022/07/24 03:45:11;;;;;;;16.33;9.85;;;;;;;16.29;84.12;101634.63;5041023;28;20044;-74
2022/07/24 03:47:37;;;;;;;17.75;9.40;;;;;;;16.28;84.38;101638.25;5060522;28;20036;-74
2022/07/24 03:50:03;;;;;;;13.90;8.70;;;;;;;16.28;84.38;101644.31;5044126;28;20056;-73
2022/07/24 03:52:28;;;;;;;13.38;8.38;;;;;;;16.15;85.14;101637.00;5041731;28;20039;-74
2022/07/24 03:54:55;;;;;;;11.73;7.40;;;;;;;16.12;85.19;101633.91;5044815;28;20483;-73
2022/07/24 03:57:20;;;;;;;16.73;9.07;;;;;;;16.15;85.09;101633.59;5047652;28;20521;-74
2022/07/24 03:59:46;;;;;;;11.65;7.32;;;;;;;16.13;85.11;101630.34;5065100;28;20028;-74
2022/07/24 04:02:11;;;;;;;21.50;8.50;;;;;;;16.14;85.45;101632.78;5025355;28;20044;-74
2022/07/24 04:04:37;;;;;;;11.93;8.18;;;;;;;16.17;85.52;101625.56;5062757;28;20054;-73
2022/07/24 04:07:02;;;;;;;10.70;7.28;;;;;;;16.19;85.21;101631.44;5061573;28;20016;-72
2022/07/24 04:09:28;;;;;;;10.05;7.15;;;;;;;16.22;85.09;101631.06;5064120;28;20039;-74
2022/07/24 04:11:53;;;;;;;10.38;6.88;;;;;;;16.22;84.74;101636.31;5063474;28;20029;-73
2022/07/24 04:14:19;;;;;;;13.07;7.28;;;;;;;16.23;84.93;101637.97;5042259;28;20044;-74
2022/07/24 04:16:45;;;;;;;10.07;7.43;;;;;;;16.23;85.06;101641.38;5043337;28;20222;-72
2022/07/24 04:19:10;;;;;;;11.48;7.10;;;;;;;16.25;84.70;101639.41;5062446;28;20028;-73
2022/07/24 04:21:36;;;;;;;12.43;7.75;;;;;;;16.26;84.86;101645.47;5043543;28;20678;-74
2022/07/24 04:24:01;;;;;;;11.00;6.68;;;;;;;16.28;85.16;101652.16;5059890;28;20076;-72
2022/07/24 04:26:27;;;;;;;8.85;6.80;;;;;;;16.28;85.92;101656.56;5055511;28;20062;-73
2022/07/24 04:28:52;;;;;;;9.45;5.88;;;;;;;16.28;85.91;101649.53;5043488;28;20111;-73
2022/07/24 04:31:18;;;;;;;12.55;7.03;;;;;;;16.30;85.23;101654.59;5044806;28;20555;-73
2022/07/24 04:33:43;;;;;;;10.13;6.25;;;;;;;16.33;85.17;101659.47;5045030;28;20040;-74
2022/07/24 04:36:09;;;;;;;11.85;6.60;;;;;;;16.37;85.17;101667.78;5041681;28;20040;-73
2022/07/24 04:38:35;;;;;;;15.02;6.85;;;;;;;16.39;85.11;101665.81;5022686;28;20035;-73
2022/07/24 04:41:01;;;;;;;13.43;7.88;;;;;;;16.41;85.15;101658.63;5041295;28;20037;-74
2022/07/24 04:43:27;;;;;;;11.68;6.65;;;;;;;16.36;85.79;101659.13;5038211;28;20879;-74
2022/07/24 04:45:52;;;;;;;8.65;6.20;;;;;;;16.38;85.81;101664.19;5044313;28;20032;-73
2022/07/24 04:48:18;;;;;;;9.93;6.35;;;;;;;16.41;85.57;101666.47;5039444;28;20060;-73
2022/07/24 04:50:43;;;;;;;10.88;6.70;;;;;;;16.46;85.17;101658.91;5043355;28;20044;-73
2022/07/24 04:53:09;;;;;;;11.43;6.63;;;;;;;16.52;85.77;101658.22;5039900;28;20029;-73
2022/07/24 04:55:34;;;;;;;10.05;6.88;;;;;;;16.49;86.07;101663.81;5043525;28;20029;-73
2022/07/24 04:58:00;;;;;;;10.55;7.13;;;;;;;16.49;86.89;101654.13;5040093;28;20079;-73
2022/07/24 05:00:25;;;;;;;12.80;7.05;;;;;;;16.45;87.23;101649.44;5060131;28;20532;-74
2022/07/24 05:02:51;;;;;;;15.85;6.72;;;;;;;16.44;87.65;101653.84;5041629;28;20587;-74
2022/07/24 05:05:16;;;;;;;11.35;7.05;;;;;;;16.47;87.64;101648.25;5043436;28;20040;-74
2022/07/24 05:07:42;;;;;;;15.27;7.88;;;;;;;16.53;87.51;101642.31;5060283;28;20032;-75
2022/07/24 05:10:08;;;;;;;12.63;8.40;;;;;;;16.60;86.82;101639.03;5060168;28;20055;-73
2022/07/24 05:12:33;;;;;;;14.27;6.85;;;;;;;16.67;86.53;101637.31;5061316;28;20424;-74
2022/07/24 05:14:59;;;;;;;13.77;7.85;;;;;;;16.80;86.03;101644.59;5063995;28;20020;-74
2022/07/24 05:17:24;;;;;;;15.10;8.32;;;;;;;17.00;84.65;101643.13;5042544;28;20041;-74
2022/07/24 05:19:50;;;;;;;12.38;8.68;;;;;;;17.05;83.70;101642.59;5061192;28;20097;-74
2022/07/24 05:22:15;;;;;;;13.13;7.88;;;;;;;17.13;83.48;101647.75;5044506;28;20032;-74
2022/07/24 05:24:41;;;;;;;13.50;6.78;;;;;;;17.25;83.21;101648.97;5041885;28;20070;-74
2022/07/24 05:27:06;;;;;;;11.48;7.35;;;;;;;17.27;83.47;101654.84;5043040;28;20040;-72
2022/07/24 05:29:31;;;;;;;13.20;7.90;;;;;;;17.32;83.36;101662.94;5042272;28;20032;-74
2022/07/24 05:31:57;;;;;;;14.02;8.88;;;;;;;17.44;82.32;101660.72;5028500;28;20443;-74
2022/07/24 05:34:23;;;;;;;11.57;7.90;;;;;;;17.48;82.68;101669.03;5060826;28;20029;-74
2022/07/24 05:36:49;;;;;;;13.43;8.07;;;;;;;17.56;82.34;101671.56;5030197;28;20149;-73
2022/07/24 05:39:15;;;;;;;15.02;8.05;;;;;;;17.63;82.09;101671.63;5060276;28;20037;-74
2022/07/24 05:41:40;;;;;;;9.98;6.68;;;;;;;17.73;82.21;101672.19;5041213;28;20485;-73
2022/07/24 05:44:06;;;;;;;15.90;7.57;;;;;;;17.86;80.74;101669.75;5063203;28;20035;-74
2022/07/24 05:46:31;;;;;;;19.52;8.27;;;;;;;17.96;79.91;101668.66;5042949;28;20643;-75
2022/07/24 05:48:57;;;;;;;17.25;8.35;;;;;;;18.05;80.43;101668.38;5043139;28;20047;-75
2022/07/24 05:51:22;;;;;;;12.65;7.78;;;;;;;18.24;79.26;101669.59;5041160;28;20479;-74
2022/07/24 05:53:48;;;;;;;14.55;7.57;;;;;;;18.39;76.40;101672.16;5023774;28;20040;-75
2022/07/24 05:56:14;;;;;;;14.18;7.75;;;;;;;18.49;76.26;101669.22;5030258;28;20136;-74
2022/07/24 05:58:39;;;;;;;13.07;7.53;;;;;;;18.74;74.65;101674.94;5056744;28;20179;-74
2022/07/24 06:01:05;;;;;;;11.82;6.45;;;;;;;19.00;74.34;101676.97;5045304;28;20130;-75
2022/07/24 06:03:30;;;;;;;10.88;6.75;;;;;;;19.23;73.83;101676.75;5061348;28;20021;-74
2022/07/24 06:05:56;;;;;;;12.20;6.82;;;;;;;19.53;73.05;101668.63;5029658;28;20390;-74
2022/07/24 06:08:21;;;;;;;11.30;6.75;;;;;;;19.89;71.56;101666.78;5041931;28;20047;-76
2022/07/24 06:10:47;;;;;;;21.45;7.97;;;;;;;20.21;69.77;101668.72;5043972;28;20444;-75
2022/07/24 06:13:12;;;;;;;16.30;7.03;;;;;;;20.46;69.10;101660.25;5056904;28;20040;-75
2022/07/24 06:15:38;;;;;;;10.85;5.47;;;;;;;20.78;68.49;101661.31;5039809;28;20056;-74
2022/07/24 06:18:04;;;;;;;12.35;6.13;;;;;;;21.11;67.66;101657.84;5059960;28;20040;-75
2022/07/24 06:20:29;;;;;;;9.65;5.57;;;;;;;21.43;66.64;101660.59;5043058;28;20139;-74
2022/07/24 06:22:55;;;;;;;13.30;6.07;;;;;;;21.71;65.74;101659.53;5040954;28;20032;-75
2022/07/24 06:25:20;;;;;;;10.27;6.72;;;;;;;21.95;64.65;101658.00;5061546;28;20074;-75
2022/07/24 06:27:48;;;;;;;10.35;6.40;;;;;;;22.19;63.09;101655.63;5046263;28;20063;-75
2022/07/24 06:30:22;;;;;;;12.13;8.30;;;;;;;22.42;62.63;101647.19;5047476;28;20048;-75
2022/07/24 06:32:48;;;;;;;15.93;10.07;;;;;;;22.53;62.00;101654.44;5062007;28;20036;-76
2022/07/24 06:35:14;;;;;;;15.30;10.70;;;;;;;22.80;61.77;101651.56;5052950;28;20047;-74
2022/07/24 06:37:40;;;;;;;15.15;10.05;;;;;;;22.96;60.75;101640.41;5065517;28;20017;-76
2022/07/24 06:40:06;;;;;;;18.20;10.75;;;;;;;23.13;60.50;101644.16;5045339;28;20639;-75
2022/07/24 06:42:32;;;;;;;19.50;12.30;;;;;;;23.39;59.37;101642.25;5047214;28;20055;-74
2022/07/24 06:44:58;;;;;;;18.15;10.52;;;;;;;23.56;59.06;101631.88;5043482;28;20102;-74
2022/07/24 06:47:25;;;;;;;19.33;11.90;;;;;;;23.67;57.87;101628.47;5044964;28;20028;-76
2022/07/24 06:49:52;;;;;;;18.88;12.20;;;;;;;23.86;58.11;101631.09;5067701;28;20036;-75
2022/07/24 06:52:17;;;;;;;18.55;11.43;;;;;;;23.88;57.59;101632.53;5063931;28;20067;-77
2022/07/24 06:54:42;;;;;;;19.48;12.73;;;;;;;24.10;57.20;101640.75;5045666;28;20645;-74
2022/07/24 06:57:08;;;;;;;22.55;10.65;;;;;;;24.25;56.27;101639.53;5032517;28;20037;-76
2022/07/24 06:59:33;;;;;;;14.68;9.68;;;;;;;24.44;56.41;101634.94;5045538;28;20522;-76
2022/07/24 07:01:59;;;;;;;19.63;11.65;;;;;;;24.51;55.43;101638.31;5063561;28;20035;-76
2022/07/24 07:04:24;;;;;;;20.23;12.10;;;;;;;24.65;54.27;101639.72;5027071;28;20044;-75
2022/07/24 07:06:50;;;;;;;21.33;13.07;;;;;;;24.69;54.66;101642.72;5065383;28;20646;-75
2022/07/24 07:09:15;;;;;;;18.10;11.77;;;;;;;25.05;54.25;101647.00;5064402;28;20130;-75
2022/07/24 07:11:41;;;;;;;15.90;10.45;;;;;;;25.41;53.47;101649.59;5041619;28;20028;-74
2022/07/24 07:14:06;;;;;;;21.42;11.23;;;;;;;25.74;52.54;101648.13;5068520;28;20412;-74
2022/07/24 07:16:32;;;;;;;15.82;9.43;;;;;;;25.97;52.08;101649.88;5062141;28;20032;-75
2022/07/24 07:18:57;;;;;;;18.75;11.25;;;;;;;26.15;51.56;101651.53;5044295;28;20048;-75
2022/07/24 07:21:23;;;;;;;14.57;9.98;;;;;;;26.49;50.74;101651.56;5065969;28;20036;-75
2022/07/24 07:23:48;;;;;;;17.63;10.20;;;;;;;26.89;50.05;101648.72;5047321;28;20036;-74
2022/07/24 07:26:13;;;;;;;17.20;9.80;;;;;;;27.18;49.02;101659.19;5064656;28;20033;-74
2022/07/24 07:28:39;;;;;;;16.38;10.20;;;;;;;27.11;48.86;101653.28;5042393;28;20028;-75
2022/07/24 07:31:04;;;;;;;18.45;9.82;;;;;;;27.30;48.95;101649.28;5043536;28;20520;-75
2022/07/24 07:33:30;;;;;;;16.50;10.38;;;;;;;27.38;47.52;101648.81;5068054;28;20029;-75
2022/07/24 07:35:55;;;;;;;17.98;10.88;;;;;;;27.47;47.05;101649.22;5064886;28;20036;-75
2022/07/24 07:38:21;;;;;;;17.73;10.38;;;;;;;27.78;46.74;101641.53;5029256;28;20044;-74
2022/07/24 07:40:46;;;;;;;13.20;9.02;;;;;;;27.86;47.18;101653.59;5048380;28;20643;-76
2022/07/24 07:43:12;;;;;;;14.68;8.98;;;;;;;27.86;47.29;101658.94;5040667;28;20036;-75
2022/07/24 07:45:37;;;;;;;17.77;9.73;;;;;;;27.99;46.03;101655.91;5047610;28;20040;-75
2022/07/24 07:48:03;;;;;;;16.10;7.80;;;;;;;28.34;46.76;101644.72;5064956;28;20029;-76
2022/07/24 07:50:29;;;;;;;12.60;8.43;;;;;;;28.42;46.02;101646.13;5044511;28;20535;-76
2022/07/24 07:52:55;;;;;;;10.60;7.63;;;;;;;28.61;45.85;101646.53;5044293;28;20563;-76
2022/07/24 07:55:20;;;;;;;12.68;8.25;;;;;;;29.01;45.66;101637.19;5056069;28;20833;-76
2022/07/24 07:57:46;;;;;;;12.40;8.23;;;;;;;29.07;45.52;101636.13;5045701;28;20737;-76
2022/07/24 08:00:12;;;;;;;17.85;9.27;;;;;;;29.06;45.01;101629.16;5060640;28;20129;-76
2022/07/24 08:02:38;;;;;;;15.07;9.20;;;;;;;29.21;44.19;101625.00;5063217;28;20031;-76
2022/07/24 08:05:04;;;;;;;10.95;7.40;;;;;;;29.48;44.23;101622.16;5065023;28;20029;-75
2022/07/24 08:07:30;;;;;;;12.77;7.20;;;;;;;29.72;43.56;101618.97;5042854;28;20066;-77
2022/07/24 08:09:55;;;;;;;13.05;8.48;;;;;;;29.60;42.68;101624.56;5062846;28;20071;-74
2022/07/24 08:12:21;;;;;;;10.60;7.53;;;;;;;29.77;43.14;101621.69;5044733;28;20491;-75
2022/07/24 08:14:46;;;;;;;14.52;8.80;;;;;;;29.97;42.84;101624.38;5026126;28;20544;-76
2022/07/24 08:17:12;;;;;;;14.00;8.13;;;;;;;30.09;42.74;101630.25;5063767;28;20033;-75
2022/07/24 08:19:37;;;;;;;16.00;9.43;;;;;;;30.05;42.83;101629.19;5064468;28;20488;-74
2022/07/24 08:22:04;;;;;;;13.90;8.68;;;;;;;30.17;42.42;101620.09;5031443;28;20029;-75
2022/07/24 08:24:32;;;;;;;15.30;10.13;;;;;;;30.35;41.78;101613.44;5041512;28;20036;-76
2022/07/24 08:26:58;;;;;;;12.30;7.82;;;;;;;30.11;42.73;101613.94;5061628;28;20040;-75
2022/07/24 08:29:24;;;;;;;13.35;8.05;;;;;;;29.96;43.37;101609.41;5057508;28;20135;-75
2022/07/24 08:31:50;;;;;;;13.25;8.52;;;;;;;30.06;42.34;101609.41;5058004;28;20029;-75
2022/07/24 08:34:15;;;;;;;17.05;8.45;;;;;;;30.33;41.33;101603.00;5060511;28;20517;-75
2022/07/24 08:36:41;;;;;;;14.77;9.07;;;;;;;30.59;42.37;101603.75;5064628;28;20040;-75
2022/07/24 08:39:06;;;;;;;13.95;8.18;;;;;;;30.62;41.59;101602.41;5046822;28;20029;-74
2022/07/24 08:41:35;;;;;;;11.43;7.03;;;;;;;30.77;41.13;101607.69;5040834;28;20468;-76
2022/07/24 08:44:02;;;;;;;17.52;8.70;;;;;;;30.86;40.46;101599.91;5042391;28;20025;-75
2022/07/24 08:46:28;;;;;;;10.73;7.22;;;;;;;30.65;40.68;101600.00;5059464;28;20037;-76
2022/07/24 08:48:55;;;;;;;14.90;7.07;;;;;;;31.04;41.04;101593.16;5043013;28;20055;-76
2022/07/24 08:51:21;;;;;;;10.32;6.40;;;;;;;31.29;40.42;101588.75;5061530;28;20031;-76
2022/07/24 08:53:47;;;;;;;11.30;7.03;;;;;;;31.57;39.88;101600.66;5032793;28;20044;-74
2022/07/24 08:56:12;;;;;;;10.27;7.65;;;;;;;31.68;39.34;101598.72;5064844;28;20028;-76
2022/07/24 08:58:40;;;;;;;11.15;6.97;;;;;;;31.48;39.55;101587.06;5043154;28;20028;-76
2022/07/24 09:01:07;;;;;;;10.95;6.25;;;;;;;31.62;39.68;101588.03;5041229;28;20033;-76
2022/07/24 09:03:44;;;;;;;14.48;7.20;;;;;;;31.69;38.97;101573.53;5048019;28;20024;-75
2022/07/24 09:06:11;;;;;;;11.35;6.15;;;;;;;31.71;39.27;101574.84;5026811;28;20045;-77
2022/07/24 09:08:41;;;;;;;11.57;6.22;;;;;;;31.82;38.68;101573.69;5046012;28;20029;-76
2022/07/24 09:11:09;;;;;;;9.75;6.18;;;;;;;31.98;38.81;101573.53;5045369;28;20027;-76
2022/07/24 09:16:22;;;;;;;11.55;7.00;;;;;;;31.65;38.47;101564.44;5041962;28;20404;-76
2022/07/24 09:19:01;;;;;;;13.02;6.07;;;;;;;31.64;39.34;101563.63;5046364;28;20028;-75
2022/07/24 09:21:27;;;;;;;10.43;5.68;;;;;;;31.91;38.20;101556.97;5034763;28;20024;-75
2022/07/24 09:23:52;;;;;;;15.65;6.80;;;;;;;31.78;39.23;101561.13;5041970;28;20090;-75
2022/07/24 09:26:18;;;;;;;8.90;4.72;;;;;;;32.01;38.50;101554.22;5063043;28;20073;-76
2022/07/24 09:28:54;;;;;;;10.13;6.05;;;;;;;31.91;38.02;101560.47;5028010;28;20028;-75
2022/07/24 09:31:22;;;;;;;9.35;5.50;;;;;;;32.25;38.45;101559.66;5043839;28;20032;-76
2022/07/24 09:33:48;;;;;;;8.40;5.25;;;;;;;32.39;36.93;101559.75;5045056;28;20381;-75
2022/07/24 09:36:18;;;;;;;7.05;4.70;;;;;;;32.64;36.36;101556.00;5061961;28;20050;-76
2022/07/24 09:38:53;;;;;;;11.65;5.00;;;;;;;32.45;36.79;101555.13;5063255;28;20094;-75
2022/07/24 09:41:21;;;;;;;11.48;4.93;;;;;;;31.97;37.37;101559.34;5059934;28;20528;-75
2022/07/24 09:43:59;;;;;;;8.98;5.47;;;;;;;31.76;37.86;101561.41;5047820;28;20082;-74
2022/07/24 09:46:26;;;;;;;8.93;4.90;;;;;;;31.85;38.76;101553.53;5061384;28;20049;-75
2022/07/24 09:48:55;;;;;;;8.70;4.70;;;;;;;31.76;38.28;101552.53;5061682;28;20657;-76
2022/07/24 09:51:22;;;;;;;8.20;5.03;;;;;;;31.64;37.69;101560.94;5046586;28;20044;-72
2022/07/24 09:53:53;;;;;;;9.60;5.18;;;;;;;31.63;37.79;101554.00;5047492;28;20028;-74
2022/07/24 09:56:19;;;;;;;9.65;5.10;;;;;;;31.54;38.42;101553.00;5063407;28;20481;-75
2022/07/24 09:58:44;;;;;;;11.70;5.43;;;;;;;31.58;38.44;101551.38;5063900;28;20029;-74
2022/07/24 10:01:10;;;;;;;10.52;5.13;;;;;;;31.75;38.06;101543.72;5065156;28;20116;-75
2022/07/24 10:03:39;;;;;;;8.95;4.68;;;;;;;31.80;38.29;101540.19;5069599;28;20036;-74
2022/07/24 10:06:07;;;;;;;6.55;4.30;;;;;;;31.92;37.48;101551.34;5067799;28;20056;-75
2022/07/24 10:08:35;;;;;;;9.40;4.18;;;;;;;32.08;37.39;101549.34;5052335;28;20594;-75
2022/07/24 10:11:01;;;;;;;10.43;4.78;;;;;;;31.98;37.73;101544.03;5033867;28;20032;-76
2022/07/24 10:13:27;;;;;;;14.15;5.20;;;;;;;32.02;37.10;101537.06;5069002;28;20047;-76
2022/07/24 10:16:03;;;;;;;8.73;4.45;;;;;;;32.42;36.92;101526.19;5049614;28;20033;-75
2022/07/24 10:18:46;;;;;;;8.80;4.70;;;;;;;31.97;36.87;101529.84;5050561;28;20037;-74
2022/07/24 10:21:19;;;;;;;6.57;5.05;;;;;;;31.88;37.86;101523.50;5047556;28;20040;-74
2022/07/24 10:24:03;;;;;;;6.30;4.70;;;;;;;32.16;37.24;101537.22;5046535;28;20548;-76
2022/07/24 10:26:39;;;;;;;9.32;5.03;;;;;;;32.15;36.24;101530.22;5063147;28;20048;-74
2022/07/24 10:29:10;;;;;;;12.85;5.30;;;;;;;32.14;36.72;101523.28;5043656;28;20420;-75
2022/07/24 10:31:51;;;;;;;10.48;5.45;;;;;;;32.24;36.59;101525.06;5048124;28;20152;-75
2022/07/24 10:34:29;;;;;;;5.95;4.50;;;;;;;32.73;35.33;101519.38;5067113;28;20071;-75
2022/07/24 10:37:04;;;;;;;5.70;3.97;;;;;;;32.60;34.65;101522.78;5065454;28;20100;-74
2022/07/24 10:39:48;;;;;;;8.13;4.28;;;;;;;32.55;34.29;101520.94;5065067;28;20040;-76
2022/07/24 10:42:14;;;;;;;8.45;4.45;;;;;;;32.57;35.56;101512.63;5058923;28;20044;-75
2022/07/24 10:44:40;;;;;;;8.63;4.53;;;;;;;32.46;35.72;101511.13;5065351;28;20082;-75
2022/07/24 10:47:13;;;;;;;10.48;4.00;;;;;;;32.48;36.89;101515.13;5045927;28;20029;-74
2022/07/24 10:49:49;;;;;;;6.97;4.20;;;;;;;32.44;36.36;101508.72;5058593;28;20746;-74
2022/07/24 10:52:25;;;;;;;8.65;4.65;;;;;;;32.21;35.74;101502.25;5068522;28;20040;-75
2022/07/24 10:55:28;;;;;;;9.20;4.30;;;;;;;32.56;36.28;101501.03;5045010;28;20025;-75
2022/07/24 10:58:12;;;;;;;6.00;4.85;;;;;;;32.54;36.06;101502.44;5065408;28;20093;-74
2022/07/24 11:00:43;;;;;;;6.22;4.22;;;;;;;32.30;35.23;101497.88;5062613;28;20097;-75
2022/07/24 11:03:25;;;;;;;4.90;3.55;;;;;;;32.33;34.50;101494.63;5028831;28;20572;-72
2022/07/24 11:06:05;;;;;;;;;;;;;;;32.15;36.03;101501.53;5064478;28;20033;-76
2022/07/24 11:08:33;;;;;;;5.93;4.18;;;;;;;32.37;35.45;101501.00;5061363;28;19975;-74
2022/07/24 11:11:06;;;;;;;7.50;4.22;;;;;;;32.42;35.09;101499.34;5043629;28;20067;-74
2022/07/24 11:13:31;;;;;;;;;;;;;;;32.23;35.04;101488.56;5047990;28;20043;-75
2022/07/24 11:16:28;;;;;;;6.33;3.97;;;;;;;32.36;34.48;101486.00;5033977;28;19920;-77
2022/07/24 11:18:54;;;;;;;7.28;4.25;;;;;;;32.41;35.82;101477.09;5044499;28;20052;-75
2022/07/24 11:21:35;;;;;;;6.15;3.92;;;;;;;32.70;35.08;101476.22;5043637;28;20131;-74